sensor_id;sensor_type;location;lat;lon;timestamp;P1;durP1;ratioP1;P2;durP2;ratioP2
15708;SDS011;7954;51.914;8.420;2022-11-27T00:01:33;7.70;;;6.90;;
15708;SDS011;7954;51.914;8.420;2022-11-27T00:04:02;6.37;;;5.77;;
15708;SDS011;7954;51.914;8.420;2022-11-27T00:06:31;7.37;;;6.67;;
15708;SDS011;7954;51.914;8.420;2022-11-27T00:09:04;7.57;;;6.77;;
15708;SDS011;7954;51.914;8.420;2022-11-27T00:11:34;7.57;;;6.47;;
15708;SDS011;7954;51.914;8.420;2022-11-27T00:14:05;7.73;;;5.77;;
15708;SDS011;7954;51.914;8.420;2022-11-27T00:16:33;7.60;;;6.47;;
15708;SDS011;7954;51.914;8.420;2022-11-27T00:19:01;6.70;;;6.00;;
15708;SDS011;7954;51.914;8.420;2022-11-27T00:21:30;7.10;;;6.27;;
15708;SDS011;7954;51.914;8.420;2022-11-27T00:24:03;6.37;;;5.73;;
15708;SDS011;7954;51.914;8.420;2022-11-27T00:26:33;6.57;;;5.90;;
15708;SDS011;7954;51.914;8.420;2022-11-27T00:29:03;7.63;;;6.30;;
15708;SDS011;7954;51.914;8.420;2022-11-27T00:31:32;7.00;;;5.83;;
15708;SDS011;7954;51.914;8.420;2022-11-27T00:34:03;6.67;;;5.83;;
15708;SDS011;7954;51.914;8.420;2022-11-27T00:36:33;6.80;;;6.10;;
15708;SDS011;7954;51.914;8.420;2022-11-27T00:39:04;7.13;;;6.43;;
15708;SDS011;7954;51.914;8.420;2022-11-27T00:41:33;6.80;;;6.10;;
15708;SDS011;7954;51.914;8.420;2022-11-27T00:44:02;6.63;;;6.03;;
15708;SDS011;7954;51.914;8.420;2022-11-27T00:46:32;6.97;;;6.20;;
15708;SDS011;7954;51.914;8.420;2022-11-27T00:49:04;6.87;;;6.23;;
15708;SDS011;7954;51.914;8.420;2022-11-27T00:51:33;5.93;;;5.43;;
15708;SDS011;7954;51.914;8.420;2022-11-27T00:54:01;6.47;;;5.77;;
15708;SDS011;7954;51.914;8.420;2022-11-27T00:56:31;6.03;;;5.43;;
15708;SDS011;7954;51.914;8.420;2022-11-27T00:59:00;6.67;;;5.57;;
15708;SDS011;7954;51.914;8.420;2022-11-27T01:01:29;6.37;;;5.47;;
15708;SDS011;7954;51.914;8.420;2022-11-27T01:03:59;6.40;;;5.80;;
15708;SDS011;7954;51.914;8.420;2022-11-27T01:06:28;6.43;;;5.70;;
15708;SDS011;7954;51.914;8.420;2022-11-27T01:08:57;6.47;;;5.30;;
15708;SDS011;7954;51.914;8.420;2022-11-27T01:11:27;6.90;;;6.00;;
15708;SDS011;7954;51.914;8.420;2022-11-27T01:14:00;7.73;;;5.30;;
15708;SDS011;7954;51.914;8.420;2022-11-27T01:16:30;5.40;;;4.83;;
15708;SDS011;7954;51.914;8.420;2022-11-27T01:19:00;6.13;;;5.53;;
15708;SDS011;7954;51.914;8.420;2022-11-27T01:21:29;5.60;;;5.00;;
15708;SDS011;7954;51.914;8.420;2022-11-27T01:23:59;6.20;;;5.20;;
15708;SDS011;7954;51.914;8.420;2022-11-27T01:26:28;5.93;;;5.30;;
15708;SDS011;7954;51.914;8.420;2022-11-27T01:28:57;5.77;;;4.80;;
15708;SDS011;7954;51.914;8.420;2022-11-27T01:31:28;5.50;;;4.73;;
15708;SDS011;7954;51.914;8.420;2022-11-27T01:33:58;5.23;;;4.80;;
15708;SDS011;7954;51.914;8.420;2022-11-27T01:36:30;5.60;;;4.80;;
15708;SDS011;7954;51.914;8.420;2022-11-27T01:38:59;5.07;;;4.57;;
15708;SDS011;7954;51.914;8.420;2022-11-27T01:41:28;6.13;;;4.73;;
15708;SDS011;7954;51.914;8.420;2022-11-27T01:43:59;6.07;;;4.40;;
15708;SDS011;7954;51.914;8.420;2022-11-27T01:46:30;6.23;;;4.47;;
15708;SDS011;7954;51.914;8.420;2022-11-27T01:49:13;5.37;;;4.87;;
15708;SDS011;7954;51.914;8.420;2022-11-27T01:51:51;5.33;;;4.83;;
15708;SDS011;7954;51.914;8.420;2022-11-27T01:54:25;7.77;;;4.50;;
15708;SDS011;7954;51.914;8.420;2022-11-27T01:56:57;5.40;;;4.30;;
15708;SDS011;7954;51.914;8.420;2022-11-27T01:59:28;4.70;;;4.30;;
15708;SDS011;7954;51.914;8.420;2022-11-27T02:01:56;5.20;;;4.70;;
15708;SDS011;7954;51.914;8.420;2022-11-27T02:04:25;4.97;;;4.57;;
15708;SDS011;7954;51.914;8.420;2022-11-27T02:06:54;7.00;;;4.37;;
15708;SDS011;7954;51.914;8.420;2022-11-27T02:09:25;5.93;;;4.40;;
15708;SDS011;7954;51.914;8.420;2022-11-27T02:11:54;5.73;;;4.50;;
15708;SDS011;7954;51.914;8.420;2022-11-27T02:14:30;4.97;;;4.47;;
15708;SDS011;7954;51.914;8.420;2022-11-27T02:17:03;6.97;;;5.10;;
15708;SDS011;7954;51.914;8.420;2022-11-27T02:19:42;5.00;;;4.47;;
15708;SDS011;7954;51.914;8.420;2022-11-27T02:22:31;5.27;;;4.77;;
15708;SDS011;7954;51.914;8.420;2022-11-27T02:25:10;5.67;;;5.17;;
15708;SDS011;7954;51.914;8.420;2022-11-27T02:28:01;5.20;;;4.67;;
15708;SDS011;7954;51.914;8.420;2022-11-27T02:30:40;7.87;;;4.73;;
15708;SDS011;7954;51.914;8.420;2022-11-27T02:33:14;6.10;;;5.00;;
15708;SDS011;7954;51.914;8.420;2022-11-27T02:35:48;5.87;;;5.13;;
15708;SDS011;7954;51.914;8.420;2022-11-27T02:38:24;5.90;;;5.30;;
15708;SDS011;7954;51.914;8.420;2022-11-27T02:40:58;5.57;;;5.03;;
15708;SDS011;7954;51.914;8.420;2022-11-27T02:43:33;9.70;;;5.70;;
15708;SDS011;7954;51.914;8.420;2022-11-27T02:46:06;5.53;;;5.03;;
15708;SDS011;7954;51.914;8.420;2022-11-27T02:48:45;6.77;;;4.97;;
15708;SDS011;7954;51.914;8.420;2022-11-27T02:51:15;6.43;;;5.80;;
15708;SDS011;7954;51.914;8.420;2022-11-27T02:53:48;6.67;;;5.30;;
15708;SDS011;7954;51.914;8.420;2022-11-27T02:56:19;7.07;;;5.90;;
15708;SDS011;7954;51.914;8.420;2022-11-27T02:58:50;5.80;;;5.30;;
15708;SDS011;7954;51.914;8.420;2022-11-27T03:01:24;6.23;;;5.43;;
15708;SDS011;7954;51.914;8.420;2022-11-27T03:03:56;6.17;;;5.57;;
15708;SDS011;7954;51.914;8.420;2022-11-27T03:06:27;6.57;;;5.87;;
15708;SDS011;7954;51.914;8.420;2022-11-27T03:09:02;7.10;;;5.93;;
15708;SDS011;7954;51.914;8.420;2022-11-27T03:11:33;5.73;;;5.23;;
15708;SDS011;7954;51.914;8.420;2022-11-27T03:14:03;6.30;;;5.70;;
15708;SDS011;7954;51.914;8.420;2022-11-27T03:16:36;5.87;;;5.30;;
15708;SDS011;7954;51.914;8.420;2022-11-27T03:19:09;6.73;;;5.83;;
15708;SDS011;7954;51.914;8.420;2022-11-27T03:21:43;6.37;;;5.77;;
15708;SDS011;7954;51.914;8.420;2022-11-27T03:24:13;6.20;;;5.70;;
15708;SDS011;7954;51.914;8.420;2022-11-27T03:26:41;6.53;;;5.93;;
15708;SDS011;7954;51.914;8.420;2022-11-27T03:29:11;6.80;;;5.97;;
15708;SDS011;7954;51.914;8.420;2022-11-27T03:31:49;7.00;;;6.37;;
15708;SDS011;7954;51.914;8.420;2022-11-27T03:34:19;6.27;;;5.63;;
15708;SDS011;7954;51.914;8.420;2022-11-27T03:36:48;7.63;;;6.53;;
15708;SDS011;7954;51.914;8.420;2022-11-27T03:39:16;6.30;;;5.70;;
15708;SDS011;7954;51.914;8.420;2022-11-27T03:41:49;8.47;;;6.37;;
15708;SDS011;7954;51.914;8.420;2022-11-27T03:44:22;7.13;;;6.40;;
15708;SDS011;7954;51.914;8.420;2022-11-27T03:47:01;8.37;;;7.53;;
15708;SDS011;7954;51.914;8.420;2022-11-27T03:49:39;7.07;;;6.43;;
15708;SDS011;7954;51.914;8.420;2022-11-27T03:52:19;7.33;;;6.47;;
15708;SDS011;7954;51.914;8.420;2022-11-27T03:54:54;8.20;;;7.40;;
15708;SDS011;7954;51.914;8.420;2022-11-27T03:57:29;7.07;;;6.37;;
15708;SDS011;7954;51.914;8.420;2022-11-27T04:00:03;7.10;;;6.40;;
15708;SDS011;7954;51.914;8.420;2022-11-27T04:02:40;7.30;;;6.53;;
15708;SDS011;7954;51.914;8.420;2022-11-27T04:05:10;7.40;;;6.70;;
15708;SDS011;7954;51.914;8.420;2022-11-27T04:07:41;7.40;;;6.40;;
15708;SDS011;7954;51.914;8.420;2022-11-27T04:10:09;7.70;;;6.17;;
15708;SDS011;7954;51.914;8.420;2022-11-27T04:12:38;7.93;;;6.87;;
15708;SDS011;7954;51.914;8.420;2022-11-27T04:15:09;6.63;;;5.93;;
15708;SDS011;7954;51.914;8.420;2022-11-27T04:17:39;7.30;;;6.60;;
15708;SDS011;7954;51.914;8.420;2022-11-27T04:20:09;7.37;;;6.67;;
15708;SDS011;7954;51.914;8.420;2022-11-27T04:22:39;8.20;;;7.40;;
15708;SDS011;7954;51.914;8.420;2022-11-27T04:25:08;7.53;;;6.73;;
15708;SDS011;7954;51.914;8.420;2022-11-27T04:27:37;9.23;;;7.33;;
15708;SDS011;7954;51.914;8.420;2022-11-27T04:30:05;8.13;;;6.70;;
15708;SDS011;7954;51.914;8.420;2022-11-27T04:32:34;7.70;;;7.00;;
15708;SDS011;7954;51.914;8.420;2022-11-27T04:35:04;8.90;;;7.53;;
15708;SDS011;7954;51.914;8.420;2022-11-27T04:37:32;9.13;;;7.13;;
15708;SDS011;7954;51.914;8.420;2022-11-27T04:40:00;9.53;;;7.00;;
15708;SDS011;7954;51.914;8.420;2022-11-27T04:42:28;8.47;;;7.57;;
15708;SDS011;7954;51.914;8.420;2022-11-27T04:44:56;9.10;;;8.20;;
15708;SDS011;7954;51.914;8.420;2022-11-27T04:47:24;9.03;;;8.20;;
15708;SDS011;7954;51.914;8.420;2022-11-27T04:49:53;8.67;;;7.30;;
15708;SDS011;7954;51.914;8.420;2022-11-27T04:52:22;8.07;;;7.13;;
15708;SDS011;7954;51.914;8.420;2022-11-27T04:54:50;7.90;;;6.97;;
15708;SDS011;7954;51.914;8.420;2022-11-27T04:57:25;10.47;;;7.83;;
15708;SDS011;7954;51.914;8.420;2022-11-27T04:59:53;9.10;;;7.57;;
15708;SDS011;7954;51.914;8.420;2022-11-27T05:02:21;9.90;;;8.57;;
15708;SDS011;7954;51.914;8.420;2022-11-27T05:04:49;8.27;;;7.47;;
15708;SDS011;7954;51.914;8.420;2022-11-27T05:07:18;9.10;;;7.73;;
15708;SDS011;7954;51.914;8.420;2022-11-27T05:09:49;9.70;;;8.20;;
15708;SDS011;7954;51.914;8.420;2022-11-27T05:12:17;10.53;;;7.83;;
15708;SDS011;7954;51.914;8.420;2022-11-27T05:14:46;9.83;;;7.67;;
15708;SDS011;7954;51.914;8.420;2022-11-27T05:17:14;11.10;;;8.57;;
15708;SDS011;7954;51.914;8.420;2022-11-27T05:19:43;9.23;;;8.33;;
15708;SDS011;7954;51.914;8.420;2022-11-27T05:22:11;9.47;;;8.57;;
15708;SDS011;7954;51.914;8.420;2022-11-27T05:24:41;9.50;;;8.47;;
15708;SDS011;7954;51.914;8.420;2022-11-27T05:27:10;9.87;;;8.57;;
15708;SDS011;7954;51.914;8.420;2022-11-27T05:29:38;9.23;;;8.33;;
15708;SDS011;7954;51.914;8.420;2022-11-27T05:32:06;10.90;;;9.27;;
15708;SDS011;7954;51.914;8.420;2022-11-27T05:34:34;9.87;;;8.87;;
15708;SDS011;7954;51.914;8.420;2022-11-27T05:37:04;10.60;;;8.10;;
15708;SDS011;7954;51.914;8.420;2022-11-27T05:39:32;8.87;;;7.97;;
15708;SDS011;7954;51.914;8.420;2022-11-27T05:42:02;9.63;;;8.60;;
15708;SDS011;7954;51.914;8.420;2022-11-27T05:44:31;9.43;;;8.50;;
15708;SDS011;7954;51.914;8.420;2022-11-27T05:46:59;10.13;;;9.13;;
15708;SDS011;7954;51.914;8.420;2022-11-27T05:49:28;9.77;;;8.77;;
15708;SDS011;7954;51.914;8.420;2022-11-27T05:51:55;9.00;;;8.07;;
15708;SDS011;7954;51.914;8.420;2022-11-27T05:54:24;9.53;;;8.50;;
15708;SDS011;7954;51.914;8.420;2022-11-27T05:56:52;9.97;;;9.07;;
15708;SDS011;7954;51.914;8.420;2022-11-27T05:59:20;9.67;;;8.67;;
15708;SDS011;7954;51.914;8.420;2022-11-27T06:01:49;9.03;;;8.20;;
15708;SDS011;7954;51.914;8.420;2022-11-27T06:04:17;9.90;;;8.90;;
15708;SDS011;7954;51.914;8.420;2022-11-27T06:06:46;10.23;;;8.50;;
15708;SDS011;7954;51.914;8.420;2022-11-27T06:09:14;9.67;;;8.73;;
15708;SDS011;7954;51.914;8.420;2022-11-27T06:11:42;10.00;;;8.90;;
15708;SDS011;7954;51.914;8.420;2022-11-27T06:14:10;10.00;;;8.60;;
15708;SDS011;7954;51.914;8.420;2022-11-27T06:16:38;8.80;;;7.90;;
15708;SDS011;7954;51.914;8.420;2022-11-27T06:19:10;9.23;;;8.27;;
15708;SDS011;7954;51.914;8.420;2022-11-27T06:21:38;9.03;;;8.13;;
15708;SDS011;7954;51.914;8.420;2022-11-27T06:24:06;10.40;;;8.00;;
15708;SDS011;7954;51.914;8.420;2022-11-27T06:26:34;11.33;;;7.80;;
15708;SDS011;7954;51.914;8.420;2022-11-27T06:29:03;11.10;;;8.50;;
15708;SDS011;7954;51.914;8.420;2022-11-27T06:31:31;8.73;;;7.90;;
15708;SDS011;7954;51.914;8.420;2022-11-27T06:34:02;9.00;;;8.10;;
15708;SDS011;7954;51.914;8.420;2022-11-27T06:36:33;8.00;;;7.20;;
15708;SDS011;7954;51.914;8.420;2022-11-27T06:39:04;9.43;;;7.80;;
15708;SDS011;7954;51.914;8.420;2022-11-27T06:41:32;8.47;;;7.60;;
15708;SDS011;7954;51.914;8.420;2022-11-27T06:44:00;7.93;;;7.10;;
15708;SDS011;7954;51.914;8.420;2022-11-27T06:46:29;8.10;;;7.20;;
15708;SDS011;7954;51.914;8.420;2022-11-27T06:48:57;7.63;;;6.93;;
15708;SDS011;7954;51.914;8.420;2022-11-27T06:51:26;8.83;;;7.07;;
15708;SDS011;7954;51.914;8.420;2022-11-27T06:53:59;7.53;;;6.83;;
15708;SDS011;7954;51.914;8.420;2022-11-27T06:56:28;8.17;;;6.80;;
15708;SDS011;7954;51.914;8.420;2022-11-27T06:58:58;8.97;;;6.90;;
15708;SDS011;7954;51.914;8.420;2022-11-27T07:01:28;7.50;;;6.53;;
15708;SDS011;7954;51.914;8.420;2022-11-27T07:03:58;7.23;;;6.13;;
15708;SDS011;7954;51.914;8.420;2022-11-27T07:06:27;7.50;;;6.80;;
15708;SDS011;7954;51.914;8.420;2022-11-27T07:08:55;7.77;;;6.03;;
15708;SDS011;7954;51.914;8.420;2022-11-27T07:11:27;7.03;;;6.27;;
15708;SDS011;7954;51.914;8.420;2022-11-27T07:13:57;7.13;;;6.43;;
15708;SDS011;7954;51.914;8.420;2022-11-27T07:16:28;7.83;;;6.70;;
15708;SDS011;7954;51.914;8.420;2022-11-27T07:18:58;9.53;;;6.80;;
15708;SDS011;7954;51.914;8.420;2022-11-27T07:21:28;7.07;;;6.37;;
15708;SDS011;7954;51.914;8.420;2022-11-27T07:23:57;6.77;;;6.10;;
15708;SDS011;7954;51.914;8.420;2022-11-27T07:26:28;6.50;;;5.90;;
15708;SDS011;7954;51.914;8.420;2022-11-27T07:28:57;6.53;;;5.93;;
15708;SDS011;7954;51.914;8.420;2022-11-27T07:31:25;6.90;;;6.20;;
15708;SDS011;7954;51.914;8.420;2022-11-27T07:33:56;8.30;;;6.60;;
15708;SDS011;7954;51.914;8.420;2022-11-27T07:36:25;6.80;;;5.57;;
15708;SDS011;7954;51.914;8.420;2022-11-27T07:38:55;6.77;;;6.17;;
15708;SDS011;7954;51.914;8.420;2022-11-27T07:41:24;6.57;;;5.97;;
15708;SDS011;7954;51.914;8.420;2022-11-27T07:44:00;7.40;;;6.53;;
15708;SDS011;7954;51.914;8.420;2022-11-27T07:46:29;6.47;;;5.60;;
15708;SDS011;7954;51.914;8.420;2022-11-27T07:48:58;6.90;;;6.23;;
15708;SDS011;7954;51.914;8.420;2022-11-27T07:51:26;6.80;;;5.83;;
15708;SDS011;7954;51.914;8.420;2022-11-27T07:53:54;7.40;;;5.83;;
15708;SDS011;7954;51.914;8.420;2022-11-27T07:56:22;7.30;;;6.10;;
15708;SDS011;7954;51.914;8.420;2022-11-27T07:58:52;6.83;;;5.93;;
15708;SDS011;7954;51.914;8.420;2022-11-27T08:01:24;7.40;;;6.07;;
15708;SDS011;7954;51.914;8.420;2022-11-27T08:03:52;8.17;;;6.10;;
15708;SDS011;7954;51.914;8.420;2022-11-27T08:06:21;8.17;;;6.13;;
15708;SDS011;7954;51.914;8.420;2022-11-27T08:08:51;6.57;;;5.97;;
15708;SDS011;7954;51.914;8.420;2022-11-27T08:11:22;6.70;;;6.03;;
15708;SDS011;7954;51.914;8.420;2022-11-27T08:13:54;6.57;;;5.97;;
15708;SDS011;7954;51.914;8.420;2022-11-27T08:16:24;7.60;;;6.40;;
15708;SDS011;7954;51.914;8.420;2022-11-27T08:18:52;6.73;;;6.10;;
15708;SDS011;7954;51.914;8.420;2022-11-27T08:21:21;7.00;;;5.80;;
15708;SDS011;7954;51.914;8.420;2022-11-27T08:23:49;7.00;;;6.33;;
15708;SDS011;7954;51.914;8.420;2022-11-27T08:26:18;5.93;;;5.33;;
15708;SDS011;7954;51.914;8.420;2022-11-27T08:28:46;6.90;;;5.90;;
15708;SDS011;7954;51.914;8.420;2022-11-27T08:31:14;6.07;;;5.47;;
15708;SDS011;7954;51.914;8.420;2022-11-27T08:33:44;6.60;;;6.00;;
15708;SDS011;7954;51.914;8.420;2022-11-27T08:36:13;6.97;;;5.53;;
15708;SDS011;7954;51.914;8.420;2022-11-27T08:38:44;7.33;;;5.87;;
15708;SDS011;7954;51.914;8.420;2022-11-27T08:41:13;6.33;;;5.70;;
15708;SDS011;7954;51.914;8.420;2022-11-27T08:43:41;6.23;;;5.57;;
15708;SDS011;7954;51.914;8.420;2022-11-27T08:46:09;5.73;;;5.00;;
15708;SDS011;7954;51.914;8.420;2022-11-27T08:48:40;7.17;;;5.80;;
15708;SDS011;7954;51.914;8.420;2022-11-27T08:51:10;7.73;;;5.97;;
15708;SDS011;7954;51.914;8.420;2022-11-27T08:53:40;7.10;;;5.63;;
15708;SDS011;7954;51.914;8.420;2022-11-27T08:56:13;5.80;;;5.30;;
15708;SDS011;7954;51.914;8.420;2022-11-27T08:58:43;6.77;;;5.20;;
15708;SDS011;7954;51.914;8.420;2022-11-27T09:01:13;6.07;;;5.47;;
15708;SDS011;7954;51.914;8.420;2022-11-27T09:03:42;6.03;;;5.43;;
15708;SDS011;7954;51.914;8.420;2022-11-27T09:06:13;6.57;;;5.53;;
15708;SDS011;7954;51.914;8.420;2022-11-27T09:08:42;5.53;;;5.03;;
15708;SDS011;7954;51.914;8.420;2022-11-27T09:11:11;6.57;;;5.37;;
15708;SDS011;7954;51.914;8.420;2022-11-27T09:13:42;6.43;;;5.70;;
15708;SDS011;7954;51.914;8.420;2022-11-27T09:16:11;5.93;;;5.43;;
15708;SDS011;7954;51.914;8.420;2022-11-27T09:18:42;6.90;;;6.20;;
15708;SDS011;7954;51.914;8.420;2022-11-27T09:21:13;6.60;;;5.90;;
15708;SDS011;7954;51.914;8.420;2022-11-27T09:23:42;5.80;;;5.20;;
15708;SDS011;7954;51.914;8.420;2022-11-27T09:26:11;6.93;;;5.60;;
15708;SDS011;7954;51.914;8.420;2022-11-27T09:28:39;7.43;;;6.67;;
15708;SDS011;7954;51.914;8.420;2022-11-27T09:31:09;5.77;;;5.20;;
15708;SDS011;7954;51.914;8.420;2022-11-27T09:33:39;7.73;;;6.07;;
15708;SDS011;7954;51.914;8.420;2022-11-27T09:36:08;6.93;;;5.83;;
15708;SDS011;7954;51.914;8.420;2022-11-27T09:38:39;7.93;;;6.30;;
15708;SDS011;7954;51.914;8.420;2022-11-27T09:41:18;5.87;;;5.37;;
15708;SDS011;7954;51.914;8.420;2022-11-27T09:44:01;5.80;;;5.30;;
15708;SDS011;7954;51.914;8.420;2022-11-27T09:46:33;6.77;;;6.00;;
15708;SDS011;7954;51.914;8.420;2022-11-27T09:49:03;6.00;;;5.20;;
15708;SDS011;7954;51.914;8.420;2022-11-27T09:51:36;7.93;;;6.43;;
15708;SDS011;7954;51.914;8.420;2022-11-27T09:54:14;8.27;;;6.73;;
15708;SDS011;7954;51.914;8.420;2022-11-27T09:56:46;5.93;;;5.10;;
15708;SDS011;7954;51.914;8.420;2022-11-27T09:59:18;6.80;;;6.10;;
15708;SDS011;7954;51.914;8.420;2022-11-27T10:01:49;6.60;;;5.40;;
15708;SDS011;7954;51.914;8.420;2022-11-27T10:04:18;5.87;;;5.10;;
15708;SDS011;7954;51.914;8.420;2022-11-27T10:07:03;6.17;;;5.53;;
15708;SDS011;7954;51.914;8.420;2022-11-27T10:09:44;6.33;;;5.50;;
15708;SDS011;7954;51.914;8.420;2022-11-27T10:12:22;6.53;;;5.73;;
15708;SDS011;7954;51.914;8.420;2022-11-27T10:15:01;5.60;;;4.97;;
15708;SDS011;7954;51.914;8.420;2022-11-27T10:17:36;5.33;;;4.83;;
15708;SDS011;7954;51.914;8.420;2022-11-27T10:20:11;4.80;;;4.13;;
15708;SDS011;7954;51.914;8.420;2022-11-27T10:22:47;5.13;;;4.63;;
15708;SDS011;7954;51.914;8.420;2022-11-27T10:25:27;4.77;;;4.37;;
15708;SDS011;7954;51.914;8.420;2022-11-27T10:28:00;5.53;;;4.90;;
15708;SDS011;7954;51.914;8.420;2022-11-27T10:30:35;5.13;;;4.37;;
15708;SDS011;7954;51.914;8.420;2022-11-27T10:33:08;4.53;;;4.13;;
15708;SDS011;7954;51.914;8.420;2022-11-27T10:35:42;4.67;;;4.03;;
15708;SDS011;7954;51.914;8.420;2022-11-27T10:38:16;4.27;;;3.67;;
15708;SDS011;7954;51.914;8.420;2022-11-27T10:40:49;4.87;;;4.37;;
15708;SDS011;7954;51.914;8.420;2022-11-27T10:43:21;4.03;;;3.63;;
15708;SDS011;7954;51.914;8.420;2022-11-27T10:45:51;6.00;;;4.33;;
15708;SDS011;7954;51.914;8.420;2022-11-27T10:48:22;3.77;;;3.47;;
15708;SDS011;7954;51.914;8.420;2022-11-27T10:50:50;4.73;;;4.00;;
15708;SDS011;7954;51.914;8.420;2022-11-27T10:53:22;4.30;;;3.90;;
15708;SDS011;7954;51.914;8.420;2022-11-27T10:55:57;4.23;;;3.67;;
15708;SDS011;7954;51.914;8.420;2022-11-27T10:58:33;3.80;;;3.40;;
15708;SDS011;7954;51.914;8.420;2022-11-27T11:01:07;4.23;;;3.83;;
15708;SDS011;7954;51.914;8.420;2022-11-27T11:03:38;4.77;;;3.83;;
15708;SDS011;7954;51.914;8.420;2022-11-27T11:06:07;4.43;;;3.50;;
15708;SDS011;7954;51.914;8.420;2022-11-27T11:08:47;4.37;;;3.57;;
15708;SDS011;7954;51.914;8.420;2022-11-27T11:11:25;3.33;;;3.03;;
15708;SDS011;7954;51.914;8.420;2022-11-27T11:13:53;4.00;;;3.50;;
15708;SDS011;7954;51.914;8.420;2022-11-27T11:16:23;4.00;;;3.60;;
15708;SDS011;7954;51.914;8.420;2022-11-27T11:18:59;5.10;;;4.60;;
15708;SDS011;7954;51.914;8.420;2022-11-27T11:21:29;5.43;;;4.57;;
15708;SDS011;7954;51.914;8.420;2022-11-27T11:24:00;6.00;;;4.40;;
15708;SDS011;7954;51.914;8.420;2022-11-27T11:26:31;4.77;;;3.97;;
15708;SDS011;7954;51.914;8.420;2022-11-27T11:29:03;3.90;;;3.50;;
15708;SDS011;7954;51.914;8.420;2022-11-27T11:31:42;4.40;;;3.30;;
15708;SDS011;7954;51.914;8.420;2022-11-27T11:34:13;3.43;;;3.13;;
15708;SDS011;7954;51.914;8.420;2022-11-27T11:36:56;4.40;;;3.60;;
15708;SDS011;7954;51.914;8.420;2022-11-27T11:39:27;4.47;;;3.50;;
15708;SDS011;7954;51.914;8.420;2022-11-27T11:41:58;4.57;;;3.60;;
15708;SDS011;7954;51.914;8.420;2022-11-27T11:44:29;4.07;;;3.50;;
15708;SDS011;7954;51.914;8.420;2022-11-27T11:46:59;4.27;;;3.33;;
15708;SDS011;7954;51.914;8.420;2022-11-27T11:49:28;3.33;;;3.03;;
15708;SDS011;7954;51.914;8.420;2022-11-27T11:52:10;3.10;;;2.80;;
15708;SDS011;7954;51.914;8.420;2022-11-27T11:54:48;3.33;;;2.70;;
15708;SDS011;7954;51.914;8.420;2022-11-27T12:00:23;3.33;;;2.90;;
15708;SDS011;7954;51.914;8.420;2022-11-27T12:03:24;3.47;;;2.63;;
15708;SDS011;7954;51.914;8.420;2022-11-27T12:06:02;3.00;;;2.70;;
15708;SDS011;7954;51.914;8.420;2022-11-27T12:08:41;2.97;;;2.67;;
15708;SDS011;7954;51.914;8.420;2022-11-27T12:11:21;3.60;;;2.90;;
15708;SDS011;7954;51.914;8.420;2022-11-27T12:14:05;2.87;;;2.50;;
15708;SDS011;7954;51.914;8.420;2022-11-27T12:16:41;3.30;;;2.60;;
15708;SDS011;7954;51.914;8.420;2022-11-27T12:22:21;2.57;;;2.33;;
15708;SDS011;7954;51.914;8.420;2022-11-27T12:25:09;3.77;;;2.60;;
15708;SDS011;7954;51.914;8.420;2022-11-27T12:27:50;3.23;;;2.20;;
15708;SDS011;7954;51.914;8.420;2022-11-27T12:30:36;2.43;;;1.93;;
15708;SDS011;7954;51.914;8.420;2022-11-27T12:33:16;3.70;;;2.50;;
15708;SDS011;7954;51.914;8.420;2022-11-27T12:36:01;2.47;;;2.27;;
15708;SDS011;7954;51.914;8.420;2022-11-27T12:38:46;2.80;;;2.30;;
15708;SDS011;7954;51.914;8.420;2022-11-27T12:41:32;3.50;;;2.67;;
15708;SDS011;7954;51.914;8.420;2022-11-27T12:44:13;4.33;;;2.90;;
15708;SDS011;7954;51.914;8.420;2022-11-27T12:46:52;2.70;;;2.50;;
15708;SDS011;7954;51.914;8.420;2022-11-27T12:49:25;3.87;;;3.10;;
15708;SDS011;7954;51.914;8.420;2022-11-27T12:51:57;4.07;;;2.93;;
15708;SDS011;7954;51.914;8.420;2022-11-27T12:54:34;3.03;;;2.30;;
15708;SDS011;7954;51.914;8.420;2022-11-27T12:57:11;3.07;;;2.77;;
15708;SDS011;7954;51.914;8.420;2022-11-27T12:59:44;3.20;;;2.30;;
15708;SDS011;7954;51.914;8.420;2022-11-27T13:02:24;2.47;;;2.20;;
15708;SDS011;7954;51.914;8.420;2022-11-27T13:04:58;2.77;;;2.10;;
15708;SDS011;7954;51.914;8.420;2022-11-27T13:07:29;3.80;;;2.57;;
15708;SDS011;7954;51.914;8.420;2022-11-27T13:10:09;3.10;;;2.57;;
15708;SDS011;7954;51.914;8.420;2022-11-27T13:12:45;4.13;;;2.87;;
15708;SDS011;7954;51.914;8.420;2022-11-27T13:15:22;2.10;;;1.90;;
15708;SDS011;7954;51.914;8.420;2022-11-27T13:17:56;2.30;;;2.10;;
15708;SDS011;7954;51.914;8.420;2022-11-27T13:20:35;3.03;;;2.40;;
15708;SDS011;7954;51.914;8.420;2022-11-27T13:23:04;3.00;;;2.07;;
15708;SDS011;7954;51.914;8.420;2022-11-27T13:25:33;2.43;;;2.23;;
15708;SDS011;7954;51.914;8.420;2022-11-27T13:28:17;3.83;;;2.17;;
15708;SDS011;7954;51.914;8.420;2022-11-27T13:30:50;2.67;;;2.20;;
15708;SDS011;7954;51.914;8.420;2022-11-27T13:33:25;2.13;;;1.87;;
15708;SDS011;7954;51.914;8.420;2022-11-27T13:36:15;3.13;;;2.20;;
15708;SDS011;7954;51.914;8.420;2022-11-27T13:38:50;3.00;;;2.20;;
15708;SDS011;7954;51.914;8.420;2022-11-27T13:41:22;3.20;;;2.00;;
15708;SDS011;7954;51.914;8.420;2022-11-27T13:43:55;3.23;;;2.80;;
15708;SDS011;7954;51.914;8.420;2022-11-27T13:46:25;4.77;;;3.40;;
15708;SDS011;7954;51.914;8.420;2022-11-27T13:48:57;4.13;;;2.60;;
15708;SDS011;7954;51.914;8.420;2022-11-27T13:51:28;2.60;;;2.40;;
15708;SDS011;7954;51.914;8.420;2022-11-27T13:54:05;3.10;;;2.40;;
15708;SDS011;7954;51.914;8.420;2022-11-27T13:56:37;2.17;;;1.97;;
15708;SDS011;7954;51.914;8.420;2022-11-27T13:59:13;1.73;;;1.60;;
15708;SDS011;7954;51.914;8.420;2022-11-27T14:01:51;1.80;;;1.47;;
15708;SDS011;7954;51.914;8.420;2022-11-27T14:04:22;2.77;;;2.17;;
15708;SDS011;7954;51.914;8.420;2022-11-27T14:06:53;2.17;;;1.97;;
15708;SDS011;7954;51.914;8.420;2022-11-27T14:09:31;2.63;;;2.10;;
15708;SDS011;7954;51.914;8.420;2022-11-27T14:12:12;2.53;;;2.10;;
15708;SDS011;7954;51.914;8.420;2022-11-27T14:14:43;2.07;;;1.83;;
15708;SDS011;7954;51.914;8.420;2022-11-27T14:17:21;2.47;;;1.67;;
15708;SDS011;7954;51.914;8.420;2022-11-27T14:20:01;2.10;;;1.60;;
15708;SDS011;7954;51.914;8.420;2022-11-27T14:22:34;2.27;;;2.07;;
15708;SDS011;7954;51.914;8.420;2022-11-27T14:25:30;2.87;;;2.20;;
15708;SDS011;7954;51.914;8.420;2022-11-27T14:28:03;2.07;;;1.80;;
15708;SDS011;7954;51.914;8.420;2022-11-27T14:30:40;3.10;;;2.00;;
15708;SDS011;7954;51.914;8.420;2022-11-27T14:33:17;3.33;;;2.30;;
15708;SDS011;7954;51.914;8.420;2022-11-27T14:35:49;1.97;;;1.80;;
15708;SDS011;7954;51.914;8.420;2022-11-27T14:38:18;2.80;;;2.03;;
15708;SDS011;7954;51.914;8.420;2022-11-27T14:40:48;2.27;;;1.70;;
15708;SDS011;7954;51.914;8.420;2022-11-27T14:43:19;1.83;;;1.67;;
15708;SDS011;7954;51.914;8.420;2022-11-27T14:45:54;2.67;;;2.00;;
15708;SDS011;7954;51.914;8.420;2022-11-27T14:48:24;2.43;;;2.07;;
15708;SDS011;7954;51.914;8.420;2022-11-27T14:50:54;3.43;;;2.30;;
15708;SDS011;7954;51.914;8.420;2022-11-27T14:53:25;2.97;;;2.10;;
15708;SDS011;7954;51.914;8.420;2022-11-27T14:55:55;2.23;;;2.00;;
15708;SDS011;7954;51.914;8.420;2022-11-27T14:58:24;2.80;;;1.87;;
15708;SDS011;7954;51.914;8.420;2022-11-27T15:00:56;2.20;;;2.00;;
15708;SDS011;7954;51.914;8.420;2022-11-27T15:03:26;2.63;;;2.10;;
15708;SDS011;7954;51.914;8.420;2022-11-27T15:05:56;2.33;;;2.03;;
15708;SDS011;7954;51.914;8.420;2022-11-27T15:08:26;2.90;;;2.07;;
15708;SDS011;7954;51.914;8.420;2022-11-27T15:10:56;2.30;;;1.77;;
15708;SDS011;7954;51.914;8.420;2022-11-27T15:13:27;3.90;;;3.03;;
15708;SDS011;7954;51.914;8.420;2022-11-27T15:15:59;4.63;;;3.43;;
15708;SDS011;7954;51.914;8.420;2022-11-27T15:18:31;6.40;;;3.00;;
15708;SDS011;7954;51.914;8.420;2022-11-27T15:21:09;2.90;;;2.30;;
15708;SDS011;7954;51.914;8.420;2022-11-27T15:23:42;2.73;;;2.53;;
15708;SDS011;7954;51.914;8.420;2022-11-27T15:26:12;3.60;;;2.40;;
15708;SDS011;7954;51.914;8.420;2022-11-27T15:28:49;4.20;;;3.13;;
15708;SDS011;7954;51.914;8.420;2022-11-27T15:31:23;2.50;;;2.20;;
15708;SDS011;7954;51.914;8.420;2022-11-27T15:33:54;1.97;;;1.60;;
15708;SDS011;7954;51.914;8.420;2022-11-27T15:36:26;1.90;;;1.67;;